createdAt,value
2023-01-10T00:01:00.513Z,6
2023-01-10T00:02:03.249Z,6
2023-01-10T00:03:06.717Z,6.1
2023-01-10T00:04:10.368Z,6.1
2023-01-10T00:05:13.206Z,6.1
2023-01-10T00:06:17.093Z,6.1
2023-01-10T00:07:20.755Z,6.1
2023-01-10T00:08:23.789Z,6.1
2023-01-10T00:09:26.855Z,6.1
2023-01-10T00:10:29.908Z,6.1
2023-01-10T00:11:33.084Z,6.2
2023-01-10T00:12:36.109Z,6.2
2023-01-10T00:13:38.925Z,6.1
2023-01-10T00:14:56.373Z,6.1
2023-01-10T00:15:59.440Z,6.1
2023-01-10T00:17:02.966Z,6.1
2023-01-10T00:18:05.834Z,6.1
2023-01-10T00:19:08.912Z,6.1
2023-01-10T00:20:11.735Z,6.1
2023-01-10T00:21:15.177Z,6
2023-01-10T00:22:18.678Z,6
2023-01-10T00:23:21.486Z,6.1
2023-01-10T00:24:25.212Z,6.1
2023-01-10T00:25:28.307Z,6.1
2023-01-10T00:26:31.443Z,6.1
2023-01-10T00:27:34.149Z,6.1
2023-01-10T00:28:37.535Z,6.1
2023-01-10T00:29:40.278Z,6.1
2023-01-10T00:30:42.701Z,6.1
2023-01-10T00:31:45.427Z,6.1
2023-01-10T00:32:49.034Z,6.1
2023-01-10T00:33:51.553Z,6.1
2023-01-10T00:34:54.979Z,6.1
2023-01-10T00:35:58.343Z,6
2023-01-10T00:37:01.626Z,6.1
2023-01-10T00:38:05.461Z,6.1
2023-01-10T00:39:08.513Z,6.1
2023-01-10T00:40:12.592Z,6.1
2023-01-10T00:41:15.585Z,6.1
2023-01-10T00:42:18.706Z,6.1
2023-01-10T00:43:22.781Z,6.1
2023-01-10T00:44:26.138Z,6.1
2023-01-10T00:45:29.253Z,6.1
2023-01-10T00:46:33.202Z,6.1
2023-01-10T00:47:37.297Z,6.1
2023-01-10T00:48:40.042Z,6.1
2023-01-10T00:49:43.114Z,6.1
2023-01-10T00:50:46.308Z,6.2
2023-01-10T00:51:48.907Z,6.2
2023-01-10T00:52:52.303Z,6.2
2023-01-10T00:53:56.145Z,6.2
2023-01-10T00:54:59.305Z,6.2
2023-01-10T00:56:02.025Z,6.2
2023-01-10T00:57:04.723Z,6.2
2023-01-10T00:58:08.771Z,6.2
2023-01-10T00:59:11.650Z,6.2
2023-01-10T01:00:14.658Z,6.2
2023-01-10T01:01:18.817Z,6.2
2023-01-10T01:02:22.340Z,6.2
2023-01-10T01:03:25.505Z,6.2
2023-01-10T01:04:28.862Z,6.2
2023-01-10T01:05:32.267Z,6.2
2023-01-10T01:06:35.275Z,6.2
2023-01-10T01:07:38.653Z,6.2
2023-01-10T01:08:42.159Z,6.2
2023-01-10T01:09:45.646Z,6.2
2023-01-10T01:10:49.098Z,6.2
2023-01-10T01:11:51.558Z,6.2
2023-01-10T01:12:54.888Z,6.1
2023-01-10T01:13:58.384Z,6.2
2023-01-10T01:15:01.699Z,6.2
2023-01-10T01:16:04.798Z,6.1
2023-01-10T01:17:07.666Z,6.1
2023-01-10T01:18:10.454Z,6.1
2023-01-10T01:19:13.562Z,6.1
2023-01-10T01:20:16.144Z,6.1
2023-01-10T01:21:19.193Z,6.1
2023-01-10T01:22:22.201Z,6.1
2023-01-10T01:23:25.677Z,6.1
2023-01-10T01:24:29.332Z,6.1
2023-01-10T01:25:33.173Z,6.1
2023-01-10T01:26:36.314Z,6.1
2023-01-10T01:27:39.392Z,6.1
2023-01-10T01:28:41.616Z,6.2
2023-01-10T01:29:45.189Z,6.2
2023-01-10T01:30:48.622Z,6.1
2023-01-10T01:31:53.559Z,6.1
2023-01-10T01:32:57.097Z,6.1
2023-01-10T01:34:00.603Z,6.1
2023-01-10T01:35:03.679Z,6.1
2023-01-10T01:36:06.197Z,6.1
2023-01-10T01:37:08.997Z,6.1
2023-01-10T01:38:12.353Z,6.1
2023-01-10T01:39:15.440Z,6.1
2023-01-10T01:40:18.489Z,6.2
2023-01-10T01:41:22.546Z,6.2
2023-01-10T01:42:25.927Z,6.2
2023-01-10T01:43:28.794Z,6.2
2023-01-10T01:44:32.180Z,6.2
2023-01-10T01:45:35.469Z,6.2
2023-01-10T01:46:39.115Z,6.2
2023-01-10T01:47:42.288Z,6.2
2023-01-10T01:48:45.050Z,6.2
2023-01-10T01:49:48.149Z,6.2
2023-01-10T01:50:51.297Z,6.2
2023-01-10T01:51:54.093Z,6.2
2023-01-10T01:52:56.893Z,6.2
2023-01-10T01:53:59.404Z,6.2
2023-01-10T01:55:02.714Z,6.2
2023-01-10T01:56:05.970Z,6.2
2023-01-10T01:57:09.224Z,6.2
2023-01-10T01:58:12.210Z,6.2
2023-01-10T01:59:15.000Z,6.2
2023-01-10T02:00:18.351Z,6.3
2023-01-10T02:01:22.485Z,6.3
2023-01-10T02:02:26.122Z,6.3
2023-01-10T02:03:29.564Z,6.3
2023-01-10T02:04:32.391Z,6.3
2023-01-10T02:05:35.962Z,6.3
2023-01-10T02:06:38.696Z,6.3
2023-01-10T02:07:42.075Z,6.3
2023-01-10T02:08:45.353Z,6.3
2023-01-10T02:09:48.781Z,6.3
2023-01-10T02:10:51.897Z,6.3
2023-01-10T02:11:55.256Z,6.3
2023-01-10T02:12:59.125Z,6.3
2023-01-10T02:14:03.119Z,6.3
2023-01-10T02:15:06.005Z,6.3
2023-01-10T02:16:09.655Z,6.3
2023-01-10T02:17:12.773Z,6.3
2023-01-10T02:18:16.099Z,6.3
2023-01-10T02:19:19.747Z,6.2
2023-01-10T02:20:22.581Z,6.3
2023-01-10T02:21:25.409Z,6.3
2023-01-10T02:22:28.493Z,6.3
2023-01-10T02:23:31.388Z,6.2
2023-01-10T02:24:34.210Z,6.2
2023-01-10T02:25:37.197Z,6.2
2023-01-10T02:26:40.597Z,6.2
2023-01-10T02:27:44.044Z,6.2
2023-01-10T02:28:47.562Z,6.3
2023-01-10T02:29:51.567Z,6.3
2023-01-10T02:30:54.593Z,6.3
2023-01-10T02:31:57.304Z,6.3
2023-01-10T02:33:07.115Z,6.2
2023-01-10T02:34:10.484Z,6.2
2023-01-10T02:35:13.387Z,6.2
2023-01-10T02:36:15.841Z,6.2
2023-01-10T02:37:19.321Z,6.2
2023-01-10T02:38:21.774Z,6.2
2023-01-10T02:39:24.825Z,6.2
2023-01-10T02:40:27.672Z,6.2
2023-01-10T02:41:30.963Z,6.2
2023-01-10T02:42:34.972Z,6.2
2023-01-10T02:43:38.328Z,6.2
2023-01-10T02:44:41.846Z,6.2
2023-01-10T02:45:45.515Z,6.2
2023-01-10T02:46:48.705Z,6.2
2023-01-10T02:47:52.548Z,6.2
2023-01-10T02:48:55.960Z,6.2
2023-01-10T02:49:59.695Z,6.2
2023-01-10T02:51:02.461Z,6.2
2023-01-10T02:52:05.682Z,6.3
2023-01-10T02:53:08.393Z,6.2
2023-01-10T02:54:11.776Z,6.3
2023-01-10T02:55:14.475Z,6.3
2023-01-10T02:56:17.756Z,6.3
2023-01-10T02:57:20.811Z,6.2
2023-01-10T02:58:23.916Z,6.2
2023-01-10T02:59:27.102Z,6.2
2023-01-10T03:00:31.221Z,6.2
2023-01-10T03:01:35.355Z,6.2
2023-01-10T03:02:38.607Z,6.2
2023-01-10T03:03:41.699Z,6.3
2023-01-10T03:04:44.500Z,6.3
2023-01-10T03:05:48.196Z,6.3
2023-01-10T03:06:51.950Z,6.3
2023-01-10T03:07:55.277Z,6.3
2023-01-10T03:08:58.272Z,6.3
2023-01-10T03:10:01.654Z,6.3
2023-01-10T03:11:04.376Z,6.3
2023-01-10T03:12:06.885Z,6.2
2023-01-10T03:13:09.880Z,6.2
2023-01-10T03:14:13.610Z,6.2
2023-01-10T03:15:16.503Z,6.2
2023-01-10T03:16:20.597Z,6.2
2023-01-10T03:17:24.027Z,6.2
2023-01-10T03:18:27.433Z,6.3
2023-01-10T03:19:30.877Z,6.3
2023-01-10T03:20:33.631Z,6.2
2023-01-10T03:21:36.939Z,6.2
2023-01-10T03:22:40.404Z,6.2
2023-01-10T03:23:43.145Z,6.2
2023-01-10T03:24:46.210Z,6.2
2023-01-10T03:25:48.721Z,6.2
2023-01-10T03:26:51.450Z,6.2
2023-01-10T03:27:55.432Z,6.2
2023-01-10T03:28:58.520Z,6.2
2023-01-10T03:30:02.351Z,6.2
2023-01-10T03:31:05.134Z,6.2
2023-01-10T03:32:09.060Z,6.2
2023-01-10T03:33:12.109Z,6.2
2023-01-10T03:34:15.271Z,6.2
2023-01-10T03:35:18.347Z,6.2
2023-01-10T03:36:21.740Z,6.2
2023-01-10T03:37:25.047Z,6.1
2023-01-10T03:38:27.212Z,6.1
2023-01-10T03:39:30.383Z,6.1
2023-01-10T03:40:33.639Z,6.1
2023-01-10T03:41:36.239Z,6.1
2023-01-10T03:42:38.978Z,6.2
2023-01-10T03:43:41.694Z,6.1
2023-01-10T03:44:45.138Z,6.2
2023-01-10T03:45:48.919Z,6.2
2023-01-10T03:46:52.808Z,6.1
2023-01-10T03:47:57.011Z,6.1
2023-01-10T03:49:00.472Z,6.1
2023-01-10T03:50:03.485Z,6.2
2023-01-10T03:51:06.551Z,6.2
2023-01-10T03:52:10.311Z,6.2
2023-01-10T03:53:13.656Z,6.2
2023-01-10T03:54:16.734Z,6.2
2023-01-10T03:55:19.496Z,6.2
2023-01-10T03:56:22.979Z,6.2
2023-01-10T03:57:26.315Z,6.2
2023-01-10T03:58:29.572Z,6.2
2023-01-10T03:59:33.159Z,6.2
2023-01-10T04:00:36.235Z,6.1
2023-01-10T04:01:39.301Z,6.1
2023-01-10T04:02:42.067Z,6.1
2023-01-10T04:03:46.365Z,6.1
2023-01-10T04:04:49.421Z,6.1
2023-01-10T04:05:52.437Z,6.1
2023-01-10T04:06:55.317Z,6.1
2023-01-10T04:07:58.678Z,6.2
2023-01-10T04:09:02.132Z,6.2
2023-01-10T04:10:05.568Z,6.2
2023-01-10T04:11:08.571Z,6.2
2023-01-10T04:12:11.287Z,6.2
2023-01-10T04:13:14.437Z,6.2
2023-01-10T04:14:17.233Z,6.2
2023-01-10T04:15:20.207Z,6.1
2023-01-10T04:16:23.584Z,6.1
2023-01-10T04:17:27.076Z,6.1
2023-01-10T04:18:30.443Z,6.1
2023-01-10T04:19:34.229Z,6
2023-01-10T04:20:37.391Z,6
2023-01-10T04:21:40.114Z,6
2023-01-10T04:22:42.327Z,6
2023-01-10T04:23:45.478Z,6.1
2023-01-10T04:24:48.701Z,6
2023-01-10T04:25:51.819Z,6
2023-01-10T04:26:54.791Z,6
2023-01-10T04:27:57.640Z,6.1
2023-01-10T04:29:00.922Z,6
2023-01-10T04:30:04.079Z,6
2023-01-10T04:31:07.190Z,6
2023-01-10T04:32:10.212Z,6
2023-01-10T04:33:13.596Z,5.9
2023-01-10T04:34:16.269Z,6
2023-01-10T04:35:20.092Z,6
2023-01-10T04:36:22.868Z,6
2023-01-10T04:37:26.248Z,6
2023-01-10T04:38:29.582Z,6
2023-01-10T04:39:32.708Z,5.9
2023-01-10T04:40:35.749Z,5.9
2023-01-10T04:41:38.922Z,5.9
2023-01-10T04:42:41.623Z,5.9
2023-01-10T04:43:44.736Z,5.9
2023-01-10T04:44:47.328Z,6
2023-01-10T04:45:50.482Z,5.9
2023-01-10T04:46:53.659Z,5.9
2023-01-10T04:47:56.784Z,5.9
2023-01-10T04:49:00.310Z,5.9
2023-01-10T04:50:03.417Z,5.9
2023-01-10T04:51:07.457Z,5.8
2023-01-10T04:52:10.223Z,5.8
2023-01-10T04:53:13.243Z,5.8
2023-01-10T04:54:16.347Z,5.9
2023-01-10T04:55:19.454Z,5.8
2023-01-10T04:56:22.815Z,5.8
2023-01-10T04:57:26.228Z,5.8
2023-01-10T04:58:29.837Z,5.8
2023-01-10T04:59:32.890Z,5.9
2023-01-10T05:00:35.886Z,5.8
2023-01-10T05:01:39.415Z,5.8
2023-01-10T05:02:43.269Z,5.8
2023-01-10T05:03:46.969Z,5.8
2023-01-10T05:04:50.349Z,5.8
2023-01-10T05:05:53.747Z,5.8
2023-01-10T05:06:57.519Z,5.8
2023-01-10T05:08:00.887Z,5.8
2023-01-10T05:09:04.270Z,5.8
2023-01-10T05:10:08.019Z,5.9
2023-01-10T05:11:11.507Z,5.9
2023-01-10T05:12:15.252Z,5.9
2023-01-10T05:13:18.321Z,5.9
2023-01-10T05:14:21.418Z,5.9
2023-01-10T05:15:24.134Z,5.9
2023-01-10T05:16:27.370Z,5.9
2023-01-10T05:17:30.487Z,5.9
2023-01-10T05:18:33.223Z,5.9
2023-01-10T05:19:36.236Z,5.8
2023-01-10T05:20:39.279Z,5.8
2023-01-10T05:21:42.009Z,5.8
2023-01-10T05:22:46.141Z,5.8
2023-01-10T05:23:49.420Z,5.8
2023-01-10T05:24:55.952Z,5.8
2023-01-10T05:25:58.698Z,5.9
2023-01-10T05:27:01.198Z,5.9
2023-01-10T05:28:03.471Z,5.9
2023-01-10T05:29:06.857Z,5.9
2023-01-10T05:30:10.204Z,5.9
2023-01-10T05:31:13.236Z,5.9
2023-01-10T05:32:16.324Z,5.8
2023-01-10T05:33:19.377Z,5.9
2023-01-10T05:34:22.763Z,5.9
2023-01-10T05:35:26.186Z,5.9
2023-01-10T05:36:29.035Z,5.8
2023-01-10T05:37:32.218Z,5.9
2023-01-10T05:38:36.094Z,5.8
2023-01-10T05:39:39.187Z,5.8
2023-01-10T05:40:42.227Z,5.8
2023-01-10T05:41:45.498Z,5.8
2023-01-10T05:42:48.659Z,5.8
2023-01-10T05:43:51.744Z,5.8
2023-01-10T05:44:54.883Z,5.8
2023-01-10T05:45:58.717Z,5.8
2023-01-10T05:47:02.008Z,5.8
2023-01-10T05:48:04.519Z,5.8
2023-01-10T05:49:08.249Z,5.7
2023-01-10T05:50:11.072Z,5.7
2023-01-10T05:51:14.065Z,5.7
2023-01-10T05:52:16.858Z,5.8
2023-01-10T05:53:20.034Z,5.7
2023-01-10T05:54:23.262Z,5.8
2023-01-10T05:55:25.804Z,5.8
2023-01-10T05:56:29.083Z,5.8
2023-01-10T05:57:31.954Z,5.7
2023-01-10T05:58:35.631Z,5.7
2023-01-10T05:59:38.112Z,5.7
2023-01-10T06:00:41.531Z,5.7
2023-01-10T06:01:43.743Z,5.7
2023-01-10T06:02:47.141Z,5.6
2023-01-10T06:03:50.394Z,5.7
2023-01-10T06:04:53.824Z,5.7
2023-01-10T06:05:56.966Z,5.7
2023-01-10T06:07:00.410Z,5.7
2023-01-10T06:08:03.438Z,5.7
2023-01-10T06:09:06.469Z,5.7
2023-01-10T06:10:10.309Z,5.7
2023-01-10T06:11:14.053Z,5.7
2023-01-10T06:12:16.817Z,5.7
2023-01-10T06:13:20.094Z,5.7
2023-01-10T06:14:23.571Z,5.7
2023-01-10T06:15:27.207Z,5.7
2023-01-10T06:16:30.004Z,5.7
2023-01-10T06:17:33.126Z,5.7
2023-01-10T06:18:36.499Z,5.7
2023-01-10T06:19:39.575Z,5.7
2023-01-10T06:20:43.307Z,5.7
2023-01-10T06:21:45.777Z,5.7
2023-01-10T06:22:48.569Z,5.7
2023-01-10T06:23:51.648Z,5.7
2023-01-10T06:24:54.426Z,5.7
2023-01-10T06:25:58.215Z,5.7
2023-01-10T06:27:01.391Z,5.7
2023-01-10T06:28:04.423Z,5.7
2023-01-10T06:29:07.406Z,5.7
2023-01-10T06:30:10.748Z,5.7
2023-01-10T06:31:14.447Z,5.7
2023-01-10T06:32:17.940Z,5.7
2023-01-10T06:33:20.374Z,5.7
2023-01-10T06:34:24.475Z,5.7
2023-01-10T06:35:27.536Z,5.8
2023-01-10T06:36:30.318Z,5.8
2023-01-10T06:37:33.063Z,5.7
2023-01-10T06:38:36.238Z,5.7
2023-01-10T06:39:38.802Z,5.7
2023-01-10T06:40:41.936Z,5.7
2023-01-10T06:41:45.783Z,5.7
2023-01-10T06:42:49.108Z,5.6
2023-01-10T06:43:51.900Z,5.7
2023-01-10T06:44:55.628Z,5.7
2023-01-10T06:45:59.416Z,5.7
2023-01-10T06:47:02.867Z,5.7
2023-01-10T06:48:06.157Z,5.7
2023-01-10T06:49:09.315Z,5.7
2023-01-10T06:50:12.675Z,5.7
2023-01-10T06:51:15.750Z,5.7
2023-01-10T06:52:18.630Z,5.8
2023-01-10T06:53:20.941Z,5.7
2023-01-10T06:54:23.468Z,5.7
2023-01-10T06:55:26.781Z,5.7
2023-01-10T06:56:29.637Z,5.7
2023-01-10T06:57:33.345Z,5.7
2023-01-10T06:58:36.422Z,5.7
2023-01-10T06:59:39.461Z,5.8
2023-01-10T07:00:42.801Z,5.8
2023-01-10T07:01:46.399Z,5.7
2023-01-10T07:02:49.897Z,5.7
2023-01-10T07:03:53.535Z,5.7
2023-01-10T07:04:56.676Z,5.7
2023-01-10T07:05:59.950Z,5.7
2023-01-10T07:07:03.033Z,5.7
2023-01-10T07:08:06.114Z,5.7
2023-01-10T07:09:09.813Z,5.7
2023-01-10T07:10:12.867Z,5.7
2023-01-10T07:11:16.572Z,5.7
2023-01-10T07:12:19.578Z,5.6
2023-01-10T07:13:23.363Z,5.5
2023-01-10T07:14:27.086Z,5.6
2023-01-10T07:15:30.411Z,5.6
2023-01-10T07:16:33.551Z,5.6
2023-01-10T07:17:36.910Z,5.7
2023-01-10T07:18:40.184Z,5.7
2023-01-10T07:19:43.203Z,5.7
2023-01-10T07:20:46.567Z,5.7
2023-01-10T07:21:49.338Z,5.7
2023-01-10T07:22:53.065Z,5.7
2023-01-10T07:23:56.443Z,5.7
2023-01-10T07:25:00.098Z,5.7
2023-01-10T07:26:03.210Z,5.7
2023-01-10T07:27:06.019Z,5.7
2023-01-10T07:28:09.415Z,5.7
2023-01-10T07:29:13.513Z,5.7
2023-01-10T07:30:17.180Z,5.6
2023-01-10T07:31:20.923Z,5.6
2023-01-10T07:32:24.032Z,5.6
2023-01-10T07:33:27.125Z,5.6
2023-01-10T07:34:30.128Z,5.6
2023-01-10T07:35:33.399Z,5.6
2023-01-10T07:36:40.596Z,5.6
2023-01-10T07:37:43.647Z,5.6
2023-01-10T07:38:47.115Z,5.5
2023-01-10T07:39:50.230Z,5.5
2023-01-10T07:40:53.845Z,5.5
2023-01-10T07:41:56.859Z,5.6
2023-01-10T07:43:00.353Z,5.6
2023-01-10T07:44:02.858Z,5.5
2023-01-10T07:45:06.947Z,5.6
2023-01-10T07:46:10.578Z,5.5
2023-01-10T07:47:13.969Z,5.5
2023-01-10T07:48:16.499Z,5.5
2023-01-10T07:49:19.845Z,5.5
2023-01-10T07:50:22.281Z,5.5
2023-01-10T07:51:25.609Z,5.5
2023-01-10T07:52:29.424Z,5.5
2023-01-10T07:53:32.717Z,5.5
2023-01-10T07:54:35.777Z,5.5
2023-01-10T07:55:38.906Z,5.5
2023-01-10T07:56:42.308Z,5.5
2023-01-10T07:57:45.116Z,5.5
2023-01-10T07:58:48.590Z,5.6
2023-01-10T07:59:51.772Z,5.5
2023-01-10T08:00:56.078Z,5.5
2023-01-10T08:01:59.255Z,5.5
2023-01-10T08:03:03.433Z,5.5
2023-01-10T08:04:07.123Z,5.4
2023-01-10T08:05:10.350Z,5.5
2023-01-10T08:06:17.303Z,5.5
2023-01-10T08:07:20.723Z,5.6
2023-01-10T08:08:23.807Z,5.5
2023-01-10T08:09:27.458Z,5.5
2023-01-10T08:10:30.600Z,5.6
2023-01-10T08:11:34.023Z,5.5
2023-01-10T08:12:36.739Z,5.5
2023-01-10T08:13:39.526Z,5.5
2023-01-10T08:14:43.531Z,5.5
2023-01-10T08:15:46.630Z,5.5
2023-01-10T08:16:51.121Z,5.5
2023-01-10T08:17:54.558Z,5.5
2023-01-10T08:18:58.028Z,5.5
2023-01-10T08:20:01.117Z,5.5
2023-01-10T08:21:04.513Z,5.5
2023-01-10T08:22:07.894Z,5.5
2023-01-10T08:23:10.601Z,5.6
2023-01-10T08:24:13.391Z,5.6
2023-01-10T08:25:16.473Z,5.6
2023-01-10T08:26:20.172Z,5.6
2023-01-10T08:27:22.597Z,5.6
2023-01-10T08:28:26.303Z,5.7
2023-01-10T08:29:29.288Z,5.6
2023-01-10T08:30:32.954Z,5.6
2023-01-10T08:31:36.579Z,5.6
2023-01-10T08:32:40.468Z,5.6
2023-01-10T08:33:43.963Z,5.6
2023-01-10T08:34:47.493Z,5.6
2023-01-10T08:35:50.578Z,5.6
2023-01-10T08:36:54.067Z,5.6
2023-01-10T08:37:57.714Z,5.7
2023-01-10T08:39:01.369Z,5.7
2023-01-10T08:40:04.158Z,5.7
2023-01-10T08:41:07.274Z,5.7
2023-01-10T08:42:10.138Z,5.7
2023-01-10T08:43:13.581Z,5.7
2023-01-10T08:44:15.996Z,5.7
2023-01-10T08:45:19.717Z,5.7
2023-01-10T08:46:24.181Z,5.7
2023-01-10T08:47:27.803Z,5.7
2023-01-10T08:48:32.025Z,5.7
2023-01-10T08:49:35.096Z,5.7
2023-01-10T08:50:38.221Z,5.7
2023-01-10T08:51:41.645Z,5.7
2023-01-10T08:52:45.388Z,5.7
2023-01-10T08:53:48.195Z,5.7
2023-01-10T08:54:51.339Z,5.7
2023-01-10T08:55:54.434Z,5.7
2023-01-10T08:56:57.680Z,5.8
2023-01-10T08:58:01.327Z,5.8
2023-01-10T08:59:05.388Z,5.7
2023-01-10T09:00:08.765Z,5.7
2023-01-10T09:01:12.137Z,5.7
2023-01-10T09:02:16.169Z,5.7
2023-01-10T09:03:19.243Z,5.8
2023-01-10T09:04:23.401Z,5.8
2023-01-10T09:05:30.499Z,5.9
2023-01-10T09:06:33.374Z,5.9
2023-01-10T09:07:36.473Z,6
2023-01-10T09:08:40.287Z,6
2023-01-10T09:09:43.799Z,6.1
2023-01-10T09:10:46.895Z,6.1
2023-01-10T09:11:49.945Z,6.1
2023-01-10T09:12:53.592Z,6.2
2023-01-10T09:13:57.295Z,6.2
2023-01-10T09:15:00.419Z,6.2
2023-01-10T09:16:04.357Z,6.3
2023-01-10T09:17:07.133Z,6.3
2023-01-10T09:18:10.888Z,6.3
2023-01-10T09:19:13.422Z,6.3
2023-01-10T09:20:17.243Z,6.4
2023-01-10T09:21:20.978Z,6.3
2023-01-10T09:22:24.484Z,6.3
2023-01-10T09:23:28.178Z,6.3
2023-01-10T09:24:31.032Z,6.3
2023-01-10T09:25:34.775Z,6.3
2023-01-10T09:26:38.229Z,6.3
2023-01-10T09:27:41.531Z,6.3
2023-01-10T09:28:43.968Z,6.3
2023-01-10T09:29:46.854Z,6.3
2023-01-10T09:30:50.043Z,6.2
2023-01-10T09:31:52.846Z,6.2
2023-01-10T09:32:55.970Z,6.2
2023-01-10T09:33:59.089Z,6.1
2023-01-10T09:35:02.189Z,6.1
2023-01-10T09:36:06.340Z,6.1
2023-01-10T09:37:11.401Z,6.1
2023-01-10T09:38:14.449Z,6.1
2023-01-10T09:39:17.962Z,6.1
2023-01-10T09:40:21.633Z,6.2
2023-01-10T09:41:25.087Z,6.3
2023-01-10T09:42:28.575Z,6.3
2023-01-10T09:43:32.266Z,6.4
2023-01-10T09:44:35.613Z,6.5
2023-01-10T09:45:38.655Z,6.6
2023-01-10T09:46:41.842Z,6.6
2023-01-10T09:47:45.313Z,6.7
2023-01-10T09:48:48.299Z,6.8
2023-01-10T09:49:52.030Z,6.8
2023-01-10T09:50:55.399Z,6.9
2023-01-10T09:52:01.100Z,6.8
2023-01-10T09:53:04.446Z,6.8
2023-01-10T09:54:14.330Z,6.8
2023-01-10T09:55:18.047Z,6.8
2023-01-10T09:56:21.585Z,6.8
2023-01-10T09:57:24.734Z,6.7
2023-01-10T09:58:28.079Z,6.6
2023-01-10T09:59:31.143Z,6.6
2023-01-10T10:00:34.882Z,6.6
2023-01-10T10:01:37.958Z,6.5
2023-01-10T10:02:41.442Z,6.6
2023-01-10T10:03:45.377Z,6.6
2023-01-10T10:04:48.756Z,6.6
2023-01-10T10:06:13.076Z,6.6
2023-01-10T10:07:16.735Z,6.7
2023-01-10T10:08:18.941Z,6.6
2023-01-10T10:09:22.564Z,6.6
2023-01-10T10:10:25.652Z,6.6
2023-01-10T10:11:28.775Z,6.7
2023-01-10T10:12:31.809Z,6.8
2023-01-10T10:13:34.933Z,6.8
2023-01-10T10:14:38.593Z,6.8
2023-01-10T10:15:41.398Z,6.8
2023-01-10T10:16:44.947Z,6.8
2023-01-10T10:17:48.017Z,6.8
2023-01-10T10:18:51.085Z,6.8
2023-01-10T10:19:53.987Z,6.8
2023-01-10T10:20:56.744Z,6.8
2023-01-10T10:22:00.151Z,6.8
2023-01-10T10:23:03.723Z,6.8
2023-01-10T10:24:07.156Z,6.8
2023-01-10T10:25:10.278Z,6.8
2023-01-10T10:26:13.954Z,6.7
2023-01-10T10:27:17.072Z,6.7
2023-01-10T10:28:20.454Z,6.7
2023-01-10T10:29:24.123Z,6.7
2023-01-10T10:30:27.280Z,6.8
2023-01-10T10:31:30.921Z,6.7
2023-01-10T10:32:33.417Z,6.7
2023-01-10T10:33:36.782Z,6.6
2023-01-10T10:34:40.065Z,6.6
2023-01-10T10:35:43.107Z,6.7
2023-01-10T10:36:47.196Z,6.8
2023-01-10T10:37:50.241Z,6.8
2023-01-10T10:38:54.419Z,6.7
2023-01-10T10:39:57.130Z,6.7
2023-01-10T10:41:00.863Z,6.7
2023-01-10T10:42:04.328Z,6.8
2023-01-10T10:43:08.015Z,6.7
2023-01-10T10:44:13.909Z,6.8
2023-01-10T10:45:16.613Z,6.8
2023-01-10T10:46:20.170Z,6.8
2023-01-10T10:47:22.728Z,6.8
2023-01-10T10:48:26.479Z,6.8
2023-01-10T10:49:29.624Z,6.8
2023-01-10T10:50:32.900Z,6.8
2023-01-10T10:51:36.261Z,6.7
2023-01-10T10:52:39.754Z,6.7
2023-01-10T10:53:42.564Z,6.7
2023-01-10T10:54:49.719Z,6.7
2023-01-10T10:55:53.001Z,6.7
2023-01-10T10:56:56.238Z,6.6
2023-01-10T10:58:02.909Z,6.6
2023-01-10T10:59:05.967Z,6.6
2023-01-10T11:00:09.362Z,6.6
2023-01-10T11:01:13.476Z,6.6
2023-01-10T11:02:16.784Z,6.6
2023-01-10T11:03:19.799Z,6.7
2023-01-10T11:04:23.210Z,6.7
2023-01-10T11:05:26.615Z,6.7
2023-01-10T11:06:29.633Z,6.7
2023-01-10T11:07:32.867Z,6.8
2023-01-10T11:08:35.373Z,6.8
2023-01-10T11:09:39.856Z,6.8
2023-01-10T11:10:43.904Z,6.8
2023-01-10T11:11:46.951Z,6.8
2023-01-10T11:12:50.486Z,6.8
2023-01-10T11:13:53.577Z,6.8
2023-01-10T11:14:57.343Z,6.8
2023-01-10T11:16:00.908Z,6.7
2023-01-10T11:17:04.500Z,6.7
2023-01-10T11:18:07.270Z,6.7
2023-01-10T11:19:09.990Z,6.6
2023-01-10T11:20:13.151Z,6.7
2023-01-10T11:21:16.311Z,6.6
2023-01-10T11:22:19.730Z,6.6
2023-01-10T11:23:22.823Z,6.6
2023-01-10T11:24:25.884Z,6.6
2023-01-10T11:25:29.259Z,6.7
2023-01-10T11:26:33.082Z,6.7
2023-01-10T11:27:36.137Z,6.6
2023-01-10T11:28:39.814Z,6.5
2023-01-10T11:29:42.511Z,6.5
2023-01-10T11:30:46.283Z,6.5
2023-01-10T11:31:49.788Z,6.5
2023-01-10T11:32:53.337Z,6.4
2023-01-10T11:33:56.978Z,6.4
2023-01-10T11:36:53.983Z,6.5
2023-01-10T11:37:57.309Z,6.6
2023-01-10T11:39:00.646Z,6.6
2023-01-10T11:40:04.443Z,6.5
2023-01-10T11:41:07.515Z,6.6
2023-01-10T11:42:11.654Z,6.6
2023-01-10T11:43:14.154Z,6.5
2023-01-10T11:44:17.360Z,6.5
2023-01-10T11:45:21.033Z,6.5
2023-01-10T11:46:24.818Z,6.5
2023-01-10T11:47:46.339Z,6.6
2023-01-10T11:49:19.709Z,6.6
2023-01-10T11:50:22.854Z,6.6
2023-01-10T11:51:26.290Z,6.7
2023-01-10T11:52:29.630Z,6.6
2023-01-10T11:53:32.686Z,6.6
2023-01-10T11:54:36.442Z,6.6
2023-01-10T11:55:39.942Z,6.6
2023-01-10T11:56:44.025Z,6.6
2023-01-10T11:57:48.143Z,6.6
2023-01-10T11:58:51.135Z,6.6
2023-01-10T11:59:54.887Z,6.6
2023-01-10T12:01:00.808Z,6.5
2023-01-10T12:02:04.552Z,6.6
2023-01-10T12:03:07.919Z,6.6
2023-01-10T12:04:11.271Z,6.6
2023-01-10T12:05:14.244Z,6.7
2023-01-10T12:06:17.090Z,6.7
2023-01-10T12:07:19.976Z,6.7
2023-01-10T12:08:23.971Z,6.6
2023-01-10T12:09:26.591Z,6.5
2023-01-10T12:10:29.978Z,6.5
2023-01-10T12:11:33.371Z,6.5
2023-01-10T12:12:37.046Z,6.5
2023-01-10T12:13:41.089Z,6.6
2023-01-10T12:14:44.474Z,6.5
2023-01-10T12:15:47.635Z,6.5
2023-01-10T12:16:51.591Z,6.6
2023-01-10T12:17:54.641Z,6.5
2023-01-10T12:18:57.949Z,6.5
2023-01-10T12:20:01.183Z,6.5
2023-01-10T12:21:04.385Z,6.5
2023-01-10T12:22:07.496Z,6.4
2023-01-10T12:23:11.171Z,6.5
2023-01-10T12:24:14.172Z,6.6
2023-01-10T12:25:17.266Z,6.6
2023-01-10T12:26:20.734Z,6.6
2023-01-10T12:27:24.450Z,6.6
2023-01-10T12:28:27.201Z,6.5
2023-01-10T12:29:31.333Z,6.5
2023-01-10T12:30:35.261Z,6.6
2023-01-10T12:31:38.706Z,6.6
2023-01-10T12:32:41.508Z,6.6
2023-01-10T12:33:45.186Z,6.5
2023-01-10T12:34:48.847Z,6.6
2023-01-10T12:35:51.950Z,6.5
2023-01-10T12:36:55.653Z,6.5
2023-01-10T12:37:58.497Z,6.6
2023-01-10T12:39:01.593Z,6.5
2023-01-10T12:40:04.320Z,6.5
2023-01-10T12:41:07.744Z,6.5
2023-01-10T12:42:11.381Z,6.5
2023-01-10T12:43:14.115Z,6.6
2023-01-10T12:44:17.240Z,6.5
2023-01-10T12:45:21.116Z,6.5
2023-01-10T12:47:14.294Z,6.5
2023-01-10T12:48:18.149Z,6.6
2023-01-10T12:49:21.879Z,6.5
2023-01-10T12:50:25.549Z,6.4
2023-01-10T12:51:29.085Z,6.5
2023-01-10T12:52:32.717Z,6.5
2023-01-10T12:53:35.807Z,6.4
2023-01-10T12:54:38.917Z,6.5
2023-01-10T12:55:42.814Z,6.5
2023-01-10T12:56:46.327Z,6.5
2023-01-10T12:57:53.774Z,6.5
2023-01-10T12:58:57.254Z,6.5
2023-01-10T13:00:00.643Z,6.5
2023-01-10T13:01:05.526Z,6.5
2023-01-10T13:02:09.939Z,6.4
2023-01-10T13:03:13.249Z,6.5
2023-01-10T13:04:17.056Z,6.5
2023-01-10T13:05:20.795Z,6.5
2023-01-10T13:06:24.674Z,6.5
2023-01-10T13:07:28.804Z,6.5
2023-01-10T13:08:32.856Z,6.5
2023-01-10T13:09:35.758Z,6.5
2023-01-10T13:10:39.108Z,6.5
2023-01-10T13:11:41.833Z,6.5
2023-01-10T13:12:45.024Z,6.5
2023-01-10T13:13:53.595Z,6.5
2023-01-10T13:14:57.323Z,6.5
2023-01-10T13:16:00.702Z,6.5
2023-01-10T13:17:04.623Z,6.4
2023-01-10T13:18:07.737Z,6.5
2023-01-10T13:19:10.859Z,6.4
2023-01-10T13:20:14.361Z,6.4
2023-01-10T13:21:17.674Z,6.4
2023-01-10T13:22:21.180Z,6.4
2023-01-10T13:23:24.879Z,6.4
2023-01-10T13:24:28.586Z,6.4
2023-01-10T13:25:32.042Z,6.4
2023-01-10T13:26:35.878Z,6.4
2023-01-10T13:27:39.005Z,6.5
2023-01-10T13:28:42.373Z,6.5
2023-01-10T13:29:45.777Z,6.5
2023-01-10T13:30:49.470Z,6.5
2023-01-10T13:31:52.892Z,6.6
2023-01-10T13:32:56.737Z,6.6
2023-01-10T13:33:59.995Z,6.6
2023-01-10T13:35:03.073Z,6.6
2023-01-10T13:36:06.966Z,6.6
2023-01-10T13:37:10.126Z,6.6
2023-01-10T13:38:13.526Z,6.6
2023-01-10T13:39:16.630Z,6.5
2023-01-10T13:40:20.037Z,6.5
2023-01-10T13:41:23.692Z,6.5
2023-01-10T13:42:27.369Z,6.5
2023-01-10T13:43:30.133Z,6.6
2023-01-10T13:44:33.847Z,6.6
2023-01-10T13:45:38.624Z,6.6
2023-01-10T13:46:41.501Z,6.6
2023-01-10T13:47:45.024Z,6.6
2023-01-10T13:48:49.112Z,6.5
2023-01-10T13:49:52.302Z,6.5
2023-01-10T13:50:56.047Z,6.6
2023-01-10T13:51:59.415Z,6.6
2023-01-10T13:53:02.596Z,6.6
2023-01-10T13:54:06.349Z,6.6
2023-01-10T13:55:09.807Z,6.6
2023-01-10T13:56:12.630Z,6.6
2023-01-10T13:57:15.331Z,6.7
2023-01-10T13:58:19.025Z,6.6
2023-01-10T13:59:22.449Z,6.7
2023-01-10T14:00:26.553Z,6.6
2023-01-10T14:01:31.564Z,6.6
2023-01-10T14:02:35.442Z,6.6
2023-01-10T14:03:39.962Z,6.6
2023-01-10T14:04:44.640Z,6.6
2023-01-10T14:05:48.015Z,6.6
2023-01-10T14:06:51.015Z,6.6
2023-01-10T14:07:54.486Z,6.6
2023-01-10T14:08:57.929Z,6.6
2023-01-10T14:10:05.710Z,6.7
2023-01-10T14:11:09.501Z,6.7
2023-01-10T14:12:14.168Z,6.6
2023-01-10T14:13:17.444Z,6.6
2023-01-10T14:14:21.243Z,6.6
2023-01-10T14:15:24.781Z,6.5
2023-01-10T14:16:27.967Z,6.5
2023-01-10T14:17:31.714Z,6.5
2023-01-10T14:18:34.520Z,6.5
2023-01-10T14:19:38.327Z,6.5
2023-01-10T14:20:42.436Z,6.6
2023-01-10T14:21:47.672Z,6.6
2023-01-10T14:22:51.413Z,6.6
2023-01-10T14:23:54.801Z,6.6
2023-01-10T14:24:58.531Z,6.6
2023-01-10T14:26:02.035Z,6.6
2023-01-10T14:27:06.526Z,6.6
2023-01-10T14:28:10.833Z,6.6
2023-01-10T14:29:14.282Z,6.6
2023-01-10T14:30:19.306Z,6.6
2023-01-10T14:31:23.741Z,6.5
2023-01-10T14:32:28.038Z,6.5
2023-01-10T14:33:31.937Z,6.6
2023-01-10T14:34:36.362Z,6.5
2023-01-10T14:35:40.601Z,6.5
2023-01-10T14:36:44.621Z,6.5
2023-01-10T14:37:48.049Z,6.5
2023-01-10T14:38:51.419Z,6.5